Aeroporto :
LOGIN :

Iscrizione | Disclaimer

   EN    FR    IT 

 










Sommario :    VFR   VFR Marginale   IFR   IFR Intensivo   IFR Molto Intensivo
Visibilità : 
Base nubi : 
>= 8 km
>= 3000ft
5 / 8 km
1000 / 3000 ft
1500m / 5 km
500 / 1000 ft
800 / 1500m
200 / 500 ft
< 800m
< 200 ft
Simboli :   Temporali  Nebbia  Neve Forte  Precipitazioni Forti  Vento > 20 kt
SIGMETs :   Varie  Temporali  Ghiacco  Turbolenza  Onda orograficha  Ceneri Vulcaniche






- Altitudine del aeroporto : 42 ft
- Codice IATA : KGD


UMKK - Khrabrava - Kaliningrad

ULTIMO METAR :
  • 240600Z 30008MPS 9999 BKN014 05/03 Q1004 R24/290195 NOSIG RMK QFE752/1003

METARs OBSOLETI :
  • 240530Z 30007MPS 9999 BKN016 05/02 Q1004 R24/290195 NOSIG RMK QFE751/1002
  • 240500Z 30008G14MPS 9999 BKN017CB 05/02 Q1003 R24/290195 NOSIG RMK QFE751/1001
  • 240430Z 30009MPS 9999 BKN015CB 05/03 Q1002 R24/290195 NOSIG RMK QFE750/1001
  • 240400Z 30009MPS 9999 -SHRA BKN016CB 05/03 Q1001 R24/290195 NOSIG RMK QFE750/1000
  • 240330Z 30010MPS 9999 BKN015 05/03 Q1000 R24/290195 NOSIG RMK QFE749/0999

TAF TAF UMKK
Valido dal 24 a 06 ore il 25 a 06 ore UTC


240455Z 2406/2506 31006G14MPS 9999 BKN015
TEMPO 2406/2412 -SHRA BKN011 BKN020CB
BECMG 2412/2414 26005G10MPS
BECMG 2416/2418 21003G08MPS
BECMG 2421/2423 17003MPS
TEMPO 2500/2506 14003G08MPS BKN011



MetMap, La meteo Aeronautica in un colpo d'occhio ! - Copyright ORBIFLY Dicembre 2007 - Disclaimer

ORBIFLY MET'MAP TEAM :

Programmazione e sviluppo : Alexandra Zaïnal
Concezione : Baudouin d'Aumeries
Aiuto per la programmazione : Marc-Olivier Méhu
Supporto tecnico e logistico : Manuel Goepfert
Aiuto per la traduzione : Arnaldo La Scala

Contatto : metmap@orbifly.com




FONTI E CREDITI :

   NOAA